Weather at Krivolak Airstrip

Public forecast

Using degrees Celsius for public forecast. Weather courtesy of forecast.io.

Closest aviation weather report (METAR) to Krivolak Airstrip

Closest report is Skopje International Airport, 33.1 nm (61.3 km) NW.

2024/05/28 15:50 (retrieved 27 minutes ago)

LWSK 281550Z 34004KT 310V010 9999 FEW050 SCT090 20/15 Q1012 NOSIG

Closest aviation forecast (TAF) to Krivolak Airstrip

Closest forecast is Skopje International Airport, 33.1 nm (61.3 km) NW.

2024/05/28 15:26 (retrieved 51 minutes ago)

TAF LWSK 281420Z 2815/2915 32008KT 9999 SCT050 BKN090 TEMPO 2815/2820 VRB15KT TSRA FEW033CB BKN040